createdAt,value
2018-11-07T00:02:04.792Z,10.28
2018-11-07T00:04:35.653Z,10.26
2018-11-07T00:07:06.723Z,10.26
2018-11-07T00:09:37.463Z,10.29
2018-11-07T00:12:10.258Z,10.26
2018-11-07T00:14:41.982Z,10.30
2018-11-07T00:17:12.803Z,10.37
2018-11-07T00:19:47.068Z,10.30
2018-11-07T00:22:19.858Z,10.24
2018-11-07T00:24:50.560Z,10.26
2018-11-07T00:27:23.020Z,10.33
2018-11-07T00:29:53.695Z,10.29
2018-11-07T00:32:28.425Z,10.32
2018-11-07T00:34:59.410Z,10.20
2018-11-07T00:37:30.100Z,10.17
2018-11-07T00:40:01.395Z,10.20
2018-11-07T00:42:33.127Z,10.22
2018-11-07T00:45:04.305Z,10.36
2018-11-07T00:47:35.042Z,10.29
2018-11-07T00:50:10.437Z,10.36
2018-11-07T00:52:41.244Z,10.25
2018-11-07T00:55:12.797Z,10.31
2018-11-07T00:57:43.551Z,10.31
2018-11-07T01:00:16.457Z,10.23
2018-11-07T01:02:48.972Z,10.26
2018-11-07T01:05:19.925Z,10.29
2018-11-07T01:07:53.350Z,10.40
2018-11-07T01:10:26.902Z,10.39
2018-11-07T01:12:57.747Z,10.42
2018-11-07T01:15:28.667Z,10.43
2018-11-07T01:18:02.797Z,10.45
2018-11-07T01:20:33.498Z,10.52
2018-11-07T01:23:04.343Z,10.47
2018-11-07T01:25:37.108Z,10.52
2018-11-07T01:28:07.767Z,10.48
2018-11-07T01:30:38.349Z,10.30
2018-11-07T01:33:08.919Z,10.17
2018-11-07T01:35:39.702Z,10.03
2018-11-07T01:38:10.355Z,10.09
2018-11-07T01:40:41.501Z,10.09
2018-11-07T01:43:13.858Z,10.06
2018-11-07T01:45:44.444Z,10.06
2018-11-07T01:48:15.007Z,9.88
2018-11-07T01:50:46.965Z,9.85
2018-11-07T01:53:19.324Z,9.92
2018-11-07T01:55:49.994Z,9.92
2018-11-07T01:58:20.695Z,9.87
2018-11-07T02:00:51.466Z,9.76
2018-11-07T02:03:22.042Z,9.72
2018-11-07T02:05:52.511Z,9.57
2018-11-07T02:08:26.768Z,9.71
2018-11-07T02:10:57.302Z,9.75
2018-11-07T02:13:27.988Z,9.78
2018-11-07T02:15:58.662Z,9.75
2018-11-07T02:18:29.682Z,9.75
2018-11-07T02:21:00.162Z,9.66
2018-11-07T02:23:30.895Z,9.55
2018-11-07T02:26:02.116Z,9.61
2018-11-07T02:28:32.773Z,9.70
2018-11-07T02:31:06.379Z,9.78
2018-11-07T02:33:37.121Z,9.93
2018-11-07T02:36:07.961Z,10.07
2018-11-07T02:38:42.401Z,10.05
2018-11-07T02:41:14.253Z,9.93
2018-11-07T02:43:47.333Z,9.95
2018-11-07T02:46:18.409Z,9.96
2018-11-07T02:48:51.110Z,9.91
2018-11-07T02:51:22.250Z,10.05
2018-11-07T02:53:52.960Z,10.05
2018-11-07T02:56:23.589Z,10.19
2018-11-07T02:58:54.827Z,10.13
2018-11-07T03:01:25.701Z,10.04
2018-11-07T03:03:56.320Z,10.11
2018-11-07T03:06:27.639Z,10.17
2018-11-07T03:08:59.759Z,10.10
2018-11-07T03:11:33.022Z,10.21
2018-11-07T03:14:04.126Z,10.32
2018-11-07T03:16:35.227Z,10.36
2018-11-07T03:19:06.759Z,10.28
2018-11-07T03:21:37.517Z,10.20
2018-11-07T03:24:08.453Z,10.12
2018-11-07T03:26:39.438Z,10.23
2018-11-07T03:29:10.574Z,10.21
2018-11-07T03:31:41.611Z,10.38
2018-11-07T03:34:12.013Z,10.33
2018-11-07T03:36:44.122Z,10.18
2018-11-07T03:39:17.021Z,10.13
2018-11-07T03:41:49.214Z,10.00
2018-11-07T03:44:20.005Z,9.95
2018-11-07T03:46:50.705Z,9.90
2018-11-07T03:49:22.575Z,9.86
2018-11-07T03:51:53.444Z,9.76
2018-11-07T03:54:24.159Z,9.80
2018-11-07T03:56:54.363Z,9.71
2018-11-07T03:59:24.795Z,9.70
2018-11-07T04:01:55.280Z,9.65
2018-11-07T04:04:28.434Z,9.67
2018-11-07T04:06:59.276Z,9.65
2018-11-07T04:09:29.964Z,9.71
2018-11-07T04:12:00.751Z,9.78
2018-11-07T04:14:33.581Z,9.88
2018-11-07T04:17:04.332Z,9.77
2018-11-07T04:19:35.770Z,9.64
2018-11-07T04:22:08.368Z,9.56
2018-11-07T04:24:39.444Z,9.54
2018-11-07T04:27:13.177Z,9.55
2018-11-07T04:29:46.310Z,9.52
2018-11-07T04:32:17.087Z,9.51
2018-11-07T04:34:48.029Z,9.47
2018-11-07T04:37:19.122Z,9.47
2018-11-07T04:39:52.980Z,9.49
2018-11-07T04:42:23.713Z,9.56
2018-11-07T04:44:54.450Z,9.52
2018-11-07T04:47:25.408Z,9.53
2018-11-07T04:49:56.047Z,9.55
2018-11-07T04:52:26.990Z,9.59
2018-11-07T04:54:59.410Z,9.54
2018-11-07T04:57:30.177Z,9.49
2018-11-07T05:00:01.002Z,9.48
2018-11-07T05:02:32.736Z,9.49
2018-11-07T05:05:03.924Z,9.50
2018-11-07T05:07:34.997Z,9.50
2018-11-07T05:10:07.814Z,9.57
2018-11-07T05:12:38.557Z,9.60
2018-11-07T05:15:10.346Z,9.62
2018-11-07T05:17:41.498Z,9.63
2018-11-07T05:20:13.415Z,9.62
2018-11-07T05:22:44.180Z,9.70
2018-11-07T05:25:15.595Z,9.72
2018-11-07T05:27:47.383Z,9.80
2018-11-07T05:30:19.341Z,9.91
2018-11-07T05:32:50.463Z,9.84
2018-11-07T05:35:25.504Z,9.84
2018-11-07T05:37:57.978Z,9.78
2018-11-07T05:40:34.898Z,9.81
2018-11-07T05:47:34.590Z,9.75
2018-11-07T05:50:09.250Z,9.70
2018-11-07T05:52:41.084Z,9.71
2018-11-07T05:55:12.406Z,9.71
2018-11-07T05:57:43.571Z,9.76
2018-11-07T06:00:16.097Z,9.79
2018-11-07T06:02:47.074Z,9.84
2018-11-07T06:05:17.731Z,9.84
2018-11-07T06:07:55.377Z,9.89
2018-11-07T06:10:26.643Z,9.97
2018-11-07T06:12:57.584Z,10.05
2018-11-07T06:15:29.113Z,10.17
2018-11-07T06:18:03.428Z,10.15
2018-11-07T06:20:34.582Z,10.30
2018-11-07T06:23:06.488Z,10.22
2018-11-07T06:25:37.886Z,10.16
2018-11-07T06:28:09.929Z,10.08
2018-11-07T06:30:43.153Z,10.08
2018-11-07T06:33:14.706Z,10.12
2018-11-07T06:35:45.386Z,10.12
2018-11-07T06:38:16.377Z,10.15
2018-11-07T06:40:46.884Z,10.17
2018-11-07T06:43:19.496Z,10.19
2018-11-07T06:45:50.764Z,10.22
2018-11-07T06:48:22.259Z,10.24
2018-11-07T06:50:52.967Z,10.03
2018-11-07T06:53:27.592Z,9.92
2018-11-07T06:55:58.366Z,9.83
2018-11-07T06:58:30.329Z,9.95
2018-11-07T07:01:03.455Z,10.01
2018-11-07T07:03:36.965Z,9.95
2018-11-07T07:06:08.837Z,9.86
2018-11-07T07:08:40.127Z,9.72
2018-11-07T07:11:15.939Z,9.69
2018-11-07T07:13:49.117Z,9.83
2018-11-07T07:16:24.455Z,9.92
2018-11-07T07:19:10.442Z,9.86
2018-11-07T07:21:55.734Z,9.62
2018-11-07T07:24:34.483Z,9.61
2018-11-07T07:27:06.195Z,9.58
2018-11-07T07:29:39.959Z,9.59
2018-11-07T07:32:11.879Z,9.67
2018-11-07T07:34:42.924Z,9.76
2018-11-07T07:37:13.736Z,9.84
2018-11-07T07:39:45.606Z,9.91
2018-11-07T07:42:16.587Z,9.93
2018-11-07T07:44:47.379Z,9.90
2018-11-07T07:47:18.173Z,9.93
2018-11-07T07:49:48.938Z,9.91
2018-11-07T07:52:19.702Z,10.01
2018-11-07T07:55:02.190Z,10.00
2018-11-07T07:57:34.662Z,10.03
2018-11-07T08:00:11.919Z,10.04
2018-11-07T08:02:45.897Z,10.10
2018-11-07T08:05:17.264Z,10.05
2018-11-07T08:07:48.150Z,9.79
2018-11-07T08:10:20.182Z,9.68
2018-11-07T08:12:52.133Z,9.92
2018-11-07T08:15:23.060Z,9.87
2018-11-07T08:17:53.637Z,9.87
2018-11-07T08:20:31.515Z,9.89
2018-11-07T08:23:02.692Z,9.93
2018-11-07T08:25:33.877Z,9.72
2018-11-07T08:28:05.390Z,9.64
2018-11-07T08:30:37.323Z,9.60
2018-11-07T08:33:10.198Z,9.53
2018-11-07T08:35:41.382Z,9.63
2018-11-07T08:38:12.434Z,9.58
2018-11-07T08:40:43.026Z,9.62
2018-11-07T08:43:13.621Z,9.52
2018-11-07T08:45:46.690Z,9.49
2018-11-07T08:48:18.072Z,9.71
2018-11-07T08:50:50.868Z,9.73
2018-11-07T08:53:21.906Z,9.77
2018-11-07T08:55:52.575Z,10.05
2018-11-07T08:58:25.549Z,10.17
2018-11-07T09:00:56.298Z,10.19
2018-11-07T09:03:29.204Z,10.24
2018-11-07T09:06:01.687Z,10.40
2018-11-07T09:08:33.003Z,10.39
2018-11-07T09:11:03.700Z,10.44
2018-11-07T09:13:35.774Z,10.42
2018-11-07T09:17:55.532Z,10.64
2018-11-07T09:20:26.594Z,10.68
2018-11-07T09:22:57.743Z,10.69
2018-11-07T09:25:28.660Z,10.82
2018-11-07T09:27:59.967Z,10.88
2018-11-07T09:30:33.127Z,10.77
2018-11-07T09:33:03.957Z,10.77
2018-11-07T09:35:34.576Z,10.53
2018-11-07T09:38:05.331Z,10.30
2018-11-07T09:40:38.866Z,10.45
2018-11-07T09:45:13.528Z,10.58
2018-11-07T09:47:49.305Z,10.47
2018-11-07T09:50:22.460Z,10.61
2018-11-07T09:52:55.393Z,10.83
2018-11-07T09:55:26.927Z,10.95
2018-11-07T09:57:59.084Z,11.00
2018-11-07T10:00:34.532Z,11.05
2018-11-07T10:03:05.107Z,11.01
2018-11-07T10:05:36.119Z,11.03
2018-11-07T10:08:08.910Z,10.77
2018-11-07T10:10:42.460Z,10.81
2018-11-07T10:13:13.537Z,10.78
2018-11-07T10:15:45.035Z,10.90
2018-11-07T10:18:15.877Z,11.01
2018-11-07T10:20:50.714Z,10.79
2018-11-07T10:23:22.803Z,10.93
2018-11-07T10:25:53.535Z,10.94
2018-11-07T10:28:28.963Z,11.01
2018-11-07T10:31:00.910Z,11.12
2018-11-07T10:33:33.884Z,11.29
2018-11-07T10:36:06.355Z,11.20
2018-11-07T10:38:38.100Z,11.12
2018-11-07T10:41:10.235Z,11.22
2018-11-07T10:43:43.262Z,11.42
2018-11-07T10:46:15.549Z,11.45
2018-11-07T10:48:47.090Z,11.60
2018-11-07T10:51:21.650Z,11.75
2018-11-07T10:53:54.070Z,11.78
2018-11-07T10:56:25.605Z,11.94
2018-11-07T10:58:59.255Z,12.09
2018-11-07T11:01:41.005Z,12.18
2018-11-07T11:04:12.231Z,12.24
2018-11-07T11:06:45.024Z,12.25
2018-11-07T11:09:18.563Z,12.11
2018-11-07T11:11:54.461Z,12.04
2018-11-07T11:14:25.703Z,12.07
2018-11-07T11:16:57.735Z,12.06
2018-11-07T11:19:29.175Z,11.99
2018-11-07T11:22:02.242Z,11.97
2018-11-07T11:24:35.465Z,12.10
2018-11-07T11:27:15.704Z,12.26
2018-11-07T11:29:59.972Z,12.41
2018-11-07T11:32:31.532Z,12.47
2018-11-07T11:35:02.457Z,12.52
2018-11-07T11:37:34.349Z,12.52
2018-11-07T11:40:07.113Z,12.67
2018-11-07T11:42:37.741Z,12.71
2018-11-07T11:45:20.558Z,12.79
2018-11-07T11:47:51.777Z,12.90
2018-11-07T11:50:24.234Z,12.95
2018-11-07T11:52:56.262Z,12.95
2018-11-07T11:55:27.556Z,13.09
2018-11-07T11:57:58.803Z,13.15
2018-11-07T12:00:31.220Z,13.18
2018-11-07T12:03:02.601Z,13.16
2018-11-07T12:05:35.442Z,13.28
2018-11-07T12:08:06.879Z,13.27
2018-11-07T12:10:38.918Z,13.27
2018-11-07T12:13:09.803Z,13.21
2018-11-07T12:15:46.550Z,13.18
2018-11-07T12:18:19.595Z,13.28
2018-11-07T12:20:55.611Z,13.39
2018-11-07T12:23:26.674Z,13.48
2018-11-07T12:25:58.048Z,13.55
2018-11-07T12:28:29.973Z,13.50
2018-11-07T12:31:01.739Z,13.54
2018-11-07T12:33:34.012Z,13.52
2018-11-07T12:36:05.794Z,13.64
2018-11-07T12:38:37.642Z,13.59
2018-11-07T12:41:08.405Z,13.51
2018-11-07T12:43:40.952Z,13.46
2018-11-07T12:46:15.372Z,13.49
2018-11-07T12:48:46.254Z,13.55
2018-11-07T12:51:19.315Z,13.69
2018-11-07T12:53:51.608Z,13.69
2018-11-07T12:56:22.642Z,13.56
2018-11-07T12:58:53.680Z,13.60
2018-11-07T13:04:08.512Z,13.73
2018-11-07T13:06:41.361Z,13.67
2018-11-07T13:09:14.606Z,13.60
2018-11-07T13:11:47.563Z,13.45
2018-11-07T13:14:18.605Z,13.40
2018-11-07T13:16:49.801Z,13.46
2018-11-07T13:19:20.700Z,13.54
2018-11-07T13:21:51.710Z,13.50
2018-11-07T13:24:23.873Z,13.50
2018-11-07T13:26:54.795Z,13.59
2018-11-07T13:29:25.828Z,13.74
2018-11-07T13:32:03.712Z,13.69
2018-11-07T13:34:37.282Z,13.58
2018-11-07T13:37:08.250Z,13.50
2018-11-07T13:39:39.715Z,13.63
2018-11-07T13:42:10.447Z,13.66
2018-11-07T13:44:43.122Z,13.61
2018-11-07T13:47:13.999Z,13.53
2018-11-07T13:49:44.776Z,13.45
2018-11-07T13:52:16.092Z,13.50
2018-11-07T13:54:47.735Z,13.53
2018-11-07T13:57:21.174Z,13.46
2018-11-07T13:59:52.890Z,13.42
2018-11-07T14:02:25.105Z,13.32
2018-11-07T14:04:58.173Z,13.26
2018-11-07T14:07:31.327Z,13.30
2018-11-07T14:10:02.753Z,13.28
2018-11-07T14:12:35.161Z,13.26
2018-11-07T14:15:13.449Z,13.28
2018-11-07T14:17:44.923Z,13.27
2018-11-07T14:20:15.925Z,13.34
2018-11-07T14:22:47.118Z,13.30
2018-11-07T14:25:23.763Z,13.39
2018-11-07T14:27:56.255Z,13.48
2018-11-07T14:30:27.348Z,13.45
2018-11-07T14:33:04.536Z,13.48
2018-11-07T14:35:35.782Z,13.43
2018-11-07T14:38:08.425Z,13.46
2018-11-07T14:40:40.113Z,13.39
2018-11-07T14:43:11.050Z,13.43
2018-11-07T14:45:45.552Z,13.37
2018-11-07T14:48:16.888Z,13.33
2018-11-07T14:50:48.882Z,13.33
2018-11-07T14:53:20.528Z,13.37
2018-11-07T14:55:52.020Z,13.51
2018-11-07T14:58:23.397Z,13.40
2018-11-07T15:00:55.681Z,13.42
2018-11-07T15:03:28.689Z,13.36
2018-11-07T15:06:00.400Z,13.21
2018-11-07T15:08:32.171Z,13.07
2018-11-07T15:11:02.916Z,12.99
2018-11-07T15:13:37.883Z,12.92
2018-11-07T15:16:09.483Z,12.91
2018-11-07T15:18:42.334Z,12.89
2018-11-07T15:21:18.493Z,12.84
2018-11-07T15:23:53.046Z,12.87
2018-11-07T15:26:26.189Z,12.88
2018-11-07T15:28:57.834Z,12.90
2018-11-07T15:31:28.965Z,12.90
2018-11-07T15:34:00.564Z,12.89
2018-11-07T15:36:31.847Z,12.78
2018-11-07T15:39:04.258Z,12.71
2018-11-07T15:41:35.719Z,12.80
2018-11-07T15:44:07.454Z,12.65
2018-11-07T15:46:40.374Z,12.57
2018-11-07T15:49:13.444Z,12.55
2018-11-07T15:51:47.823Z,12.52
2018-11-07T15:54:20.634Z,12.48
2018-11-07T15:56:53.213Z,12.47
2018-11-07T15:59:25.794Z,12.45
2018-11-07T16:01:58.392Z,12.43
2018-11-07T16:04:29.331Z,12.41
2018-11-07T16:07:01.273Z,12.39
2018-11-07T16:09:33.342Z,12.36
2018-11-07T16:12:03.986Z,12.35
2018-11-07T16:14:35.556Z,12.39
2018-11-07T16:17:08.093Z,12.39
2018-11-07T16:19:44.402Z,12.36
2018-11-07T16:22:15.108Z,12.38
2018-11-07T16:24:48.012Z,12.34
2018-11-07T16:27:20.997Z,12.34
2018-11-07T16:29:53.056Z,12.36
2018-11-07T16:32:24.877Z,12.37
2018-11-07T16:34:59.702Z,12.34
2018-11-07T16:37:31.271Z,12.32
2018-11-07T16:40:02.725Z,12.30
2018-11-07T16:42:33.951Z,12.29
2018-11-07T16:45:06.221Z,12.27
2018-11-07T16:47:37.643Z,12.27
2018-11-07T16:50:11.597Z,12.25
2018-11-07T16:52:46.687Z,12.24
2018-11-07T16:55:17.780Z,12.22
2018-11-07T16:57:49.545Z,12.21
2018-11-07T17:00:22.525Z,12.16
2018-11-07T17:02:54.294Z,12.17
2018-11-07T17:05:29.911Z,12.18
2018-11-07T17:08:07.326Z,12.16
2018-11-07T17:10:39.532Z,12.17
2018-11-07T17:13:11.769Z,12.18
2018-11-07T17:15:56.745Z,12.18
2018-11-07T17:18:27.538Z,12.18
2018-11-07T17:21:00.365Z,12.16
2018-11-07T17:23:34.675Z,12.13
2018-11-07T17:26:05.907Z,12.19
2018-11-07T17:28:38.090Z,12.16
2018-11-07T17:31:09.926Z,12.17
2018-11-07T17:33:42.215Z,12.29
2018-11-07T17:36:12.938Z,12.32
2018-11-07T17:38:44.595Z,12.31
2018-11-07T17:41:18.107Z,12.30
2018-11-07T17:43:49.594Z,12.22
2018-11-07T17:46:21.197Z,12.24
2018-11-07T17:48:52.062Z,12.27
2018-11-07T17:51:24.401Z,12.32
2018-11-07T17:53:55.977Z,12.49
2018-11-07T17:56:28.203Z,12.32
2018-11-07T17:58:59.287Z,12.31
2018-11-07T18:01:32.262Z,12.34
2018-11-07T18:04:03.737Z,12.26
2018-11-07T18:06:43.887Z,12.18
2018-11-07T18:09:36.697Z,12.22
2018-11-07T18:12:27.192Z,12.19
2018-11-07T18:15:04.503Z,12.16
2018-11-07T18:17:49.337Z,12.21
2018-11-07T18:20:23.059Z,12.18
2018-11-07T18:22:58.275Z,12.18
2018-11-07T18:25:32.389Z,12.18
2018-11-07T18:28:19.867Z,12.10
2018-11-07T18:30:53.519Z,12.12
2018-11-07T18:33:28.444Z,12.01
2018-11-07T18:36:01.720Z,11.93
2018-11-07T18:38:39.479Z,11.93
2018-11-07T18:41:15.591Z,11.90
2018-11-07T18:43:49.709Z,11.93
2018-11-07T18:46:32.957Z,11.87
2018-11-07T18:49:17.090Z,11.84
2018-11-07T18:51:59.777Z,11.85
2018-11-07T18:54:51.188Z,11.85
2018-11-07T18:57:30.719Z,11.87
2018-11-07T19:00:24.161Z,11.82
2018-11-07T19:03:00.510Z,11.84
2018-11-07T19:05:33.208Z,11.82
2018-11-07T19:08:11.046Z,11.79
2018-11-07T19:10:47.915Z,11.76
2018-11-07T19:13:23.986Z,11.73
2018-11-07T19:15:59.083Z,11.73
2018-11-07T19:18:33.779Z,11.69
2018-11-07T19:21:06.039Z,11.63
2018-11-07T19:23:59.450Z,11.62
2018-11-07T19:26:34.643Z,11.62
2018-11-07T19:29:08.695Z,11.63
2018-11-07T19:31:44.347Z,11.60
2018-11-07T19:34:19.617Z,11.62
2018-11-07T19:36:54.853Z,11.66
2018-11-07T19:39:29.894Z,11.62
2018-11-07T19:42:02.798Z,11.60
2018-11-07T19:44:37.311Z,11.59
2018-11-07T19:47:12.477Z,11.56
2018-11-07T19:49:50.919Z,11.57
2018-11-07T19:52:36.282Z,11.53
2018-11-07T19:55:15.795Z,11.52
2018-11-07T19:57:57.910Z,11.61
2018-11-07T20:00:30.145Z,11.66
2018-11-07T20:03:02.752Z,11.75
2018-11-07T20:05:40.008Z,11.80
2018-11-07T20:08:18.570Z,11.91
2018-11-07T20:10:58.706Z,11.78
2018-11-07T20:13:35.450Z,11.79
2018-11-07T20:16:21.362Z,11.72
2018-11-07T20:18:54.202Z,11.66
2018-11-07T20:21:29.750Z,11.65
2018-11-07T20:24:05.899Z,11.62
2018-11-07T20:26:46.705Z,11.57
2018-11-07T20:29:22.327Z,11.52
2018-11-07T20:31:56.282Z,11.49
2018-11-07T20:34:28.481Z,11.54
2018-11-07T20:37:04.494Z,11.48
2018-11-07T20:39:38.064Z,11.59
2018-11-07T20:42:10.021Z,11.63
2018-11-07T20:44:43.557Z,11.54
2018-11-07T20:47:15.611Z,11.60
2018-11-07T20:49:49.304Z,11.69
2018-11-07T20:52:22.453Z,11.56
2018-11-07T20:54:57.929Z,11.59
2018-11-07T20:57:30.222Z,11.69
2018-11-07T21:00:01.786Z,11.60
2018-11-07T21:02:34.074Z,11.44
2018-11-07T21:05:07.930Z,11.43
2018-11-07T21:07:41.158Z,11.36
2018-11-07T21:10:21.840Z,11.38
2018-11-07T21:12:55.756Z,11.42
2018-11-07T21:15:31.261Z,11.47
2018-11-07T21:18:03.180Z,11.42
2018-11-07T21:20:34.363Z,11.46
2018-11-07T21:23:08.436Z,11.48
2018-11-07T21:25:43.354Z,11.39
2018-11-07T21:28:25.754Z,11.39
2018-11-07T21:31:09.364Z,11.31
2018-11-07T21:33:44.684Z,11.36
2018-11-07T21:36:16.941Z,11.31
2018-11-07T21:38:50.408Z,11.46
2018-11-07T21:41:23.533Z,11.43
2018-11-07T21:43:56.692Z,11.34
2018-11-07T21:46:30.851Z,11.40
2018-11-07T21:49:04.184Z,11.39
2018-11-07T21:51:35.860Z,11.39
2018-11-07T21:54:10.415Z,11.38
2018-11-07T21:56:42.732Z,11.43
2018-11-07T21:59:16.470Z,11.52
2018-11-07T22:01:48.150Z,11.53
2018-11-07T22:04:27.506Z,11.56
2018-11-07T22:13:25.416Z,11.54
2018-11-07T22:15:57.715Z,11.65
2018-11-07T22:18:29.482Z,11.76
2018-11-07T22:21:03.079Z,11.69
2018-11-07T22:23:45.996Z,11.68
2018-11-07T22:26:28.227Z,11.74
2018-11-07T22:29:00.276Z,11.76
2018-11-07T22:31:32.796Z,11.73
2018-11-07T22:34:05.803Z,11.65
2018-11-07T22:36:39.680Z,11.56
2018-11-07T22:39:13.489Z,11.60
2018-11-07T22:41:46.662Z,11.52
2018-11-07T22:44:22.195Z,11.46
2018-11-07T22:47:13.278Z,11.46
2018-11-07T22:49:46.088Z,11.49
2018-11-07T22:52:20.617Z,11.57
2018-11-07T22:54:52.056Z,11.58
2018-11-07T22:57:24.099Z,11.51
2018-11-07T22:59:55.421Z,11.56
2018-11-07T23:02:29.856Z,11.66
2018-11-07T23:05:01.798Z,11.77
2018-11-07T23:07:33.070Z,11.76
2018-11-07T23:10:03.856Z,11.76
2018-11-07T23:12:35.082Z,11.59
2018-11-07T23:15:09.855Z,11.34
2018-11-07T23:17:41.179Z,11.28
2018-11-07T23:20:14.102Z,11.16
2018-11-07T23:22:45.554Z,11.15
2018-11-07T23:25:16.955Z,11.26
2018-11-07T23:27:51.330Z,11.28
2018-11-07T23:30:23.731Z,11.34
2018-11-07T23:32:57.046Z,11.26
2018-11-07T23:35:30.169Z,11.22
2018-11-07T23:38:13.858Z,11.28
2018-11-07T23:40:47.773Z,11.24
2018-11-07T23:43:22.192Z,11.24
2018-11-07T23:45:53.367Z,11.22
2018-11-07T23:59:53.159Z,11.58
